AirNav   Pilot Hours Calculator
 
 855 users online  

27FL Adventhealth Wesley Chapel Heliport
Wesley Chapel, Florida, USA

GOING TO WESLEY CHAPEL?


FAA INFORMATION EFFECTIVE 05 DECEMBER 2019

Location

FAA Identifier: 27FL
Lat/Long: 28-11-40.9300N 082-21-01.7000W
28-11.682167N 082-21.028333W
28.1947028,-82.3504722
(estimated)
Elevation: 174 ft. / 53 m (estimated)
Time zone: UTC -5 (UTC -4 during Daylight Saving Time)
Zip code: 33543

Heliport Operations

Heliport use: Private use. Permission required prior to landing
Activation date: 04/2013
Control tower: no
ARTCC: MIAMI CENTER
FSS: SAINT PETERSBURG FLIGHT SERVICE STATION
Attendance: CONTINUOUS
Wind indicator: yes
Segmented circle: no

Heliport Communications

WX AWOS-3PT at ZPH (10 nm E): 118.975 (813-780-0031)
WX AWOS-3 at VDF (11 nm S): 121.125 (813-630-0924)
WX AWOS-3 at PCM (15 nm SE): 120.025 (813-764-8259)
WX ASOS at TPA (16 nm SW): PHONE 813-873-7228
WX AWOS-3 at TPF (18 nm S): 118.925 (813-251-6824)
WX ASOS at BKV (18 nm N): 134.725 (352-799-5881)

Nearby radio navigation aids

VOR radial/distance  VOR name  Freq  Var
LALr304/21.8LAKELAND VORTAC116.0001E
PIEr051/24.7ST PETERSBURG VORTAC116.4005W

 
NDB name  Hdg/Dist  Freq  Var  ID
COSME060/11.336805WTP - .--.

Heliport Services

Runway Information

Helipad H1

Dimensions: 61 x 61 ft. / 19 x 19 m
Surface: concrete
Latitude: 28-11.682167N
Longitude: 082-21.028333W
Elevation: 174.0 ft.
Traffic pattern: leftleft

Heliport Ownership and Management from official FAA records

Ownership: Privately-owned
Owner: PASCO-PINELIAS HILLSBOROUGH COMM.
2600 BRUCE B. DOWNS BLVD
WESLEY CHAPEL, FL 33544
Phone (813) 929-5067
Manager: JOHN CROUCH
2600 BRUCE B. DOWNS BLVD
WESLEY CHAPEL, FL 33544
Phone (813) 929-5067
PASCO-PINELIAS HILLSBOROUGH COMMUNITY HEALTH SYSTEM ADDNL CTC: ANGEL LUCAS 813-929-5780 ANGEL.LUCAS@ADVENTHEALTH.COM

Additional Remarks

FOR CD CTC TAMPA APCH AT 813-878-2528

Instrument Procedures

There are no published instrument procedures at 27FL.

Some nearby airports with instrument procedures:

KZPH - Zephyrhills Municipal Airport (10 nm E)
KVDF - Tampa Executive Airport (11 nm S)
KPCM - Plant City Airport (15 nm SE)
KTPA - Tampa International Airport (16 nm SW)
KTPF - Peter O Knight Airport (18 nm S)
KBKV - Brooksville-Tampa Bay Regional Airport (18 nm N)
 
Loc | Ops | Rwys | IFR | FBO | Links
Com | Nav | Svcs | Stats | Notes


 
Aerial photo
No photo
 
Airport distance calculator
Flying to Adventhealth Wesley Chapel Heliport? Find the distance to fly.

From to 27FL

Sunrise and sunset
Times for 12-Dec-2019
 Local
(UTC-5)
 Zulu
(UTC)
Morning civil twilight06:4711:47
Sunrise07:1312:13
Sunset17:3422:34
Evening civil twilight17:5922:59

Current date and time
Zulu (UTC)  13-Dec-2019 00:43:18
Local (UTC-5)  12-Dec-2019 19:43:18
 
METAR
KZPH 
10nm E 
130015Z AUTO 05009KT 10SM OVC008 21/20 A3017 RMK A02 T02070198
KVDF 
11nm S 
130015Z AUTO 07007KT 10SM OVC012 21/20 A3016 RMK AO2
KPCM 
15nm SE 
130015Z AUTO 07007KT 10SM OVC010 22/21 A3017 RMK AO2
KTPA 
17nm SW 
122353Z 06006KT 10SM BKN014 OVC022 22/19 A3016 RMK AO2 DZE20 SLP211 CIG 012V017 P0000 60000 T02220189 10267 20222 55001
KBKV 
17nm N 
122353Z 07011KT 10SM -RA OVC012 21/19 A3018 RMK AO2 RAB48 SLP217 P0000 60000 T02110189 10250 20206 50002
KTPF 
18nm S 
130015Z AUTO 08009KT 10SM BKN015 OVC021 22/21 A3015 RMK AO2
TAF
KTPA 
17nm SW 
122107Z 1221/1324 08008G15KT P6SM VCSH SCT015 SCT025 OVC040 FM130000 09005KT P6SM BKN025 OVC100 FM131500 17008KT P6SM VCSH OVC100
NOTAMs
Click for the latest NOTAMs
NOTAMs are issued by the DoD/FAA and will open in a separate window not controlled by AirNav.

 

 
 

Would you like to see your business listed on this page?

 If your business provides an interesting product or service to pilots, flight crews, aircraft, or users of the Adventhealth Wesley Chapel Heliport, you should consider listing it here.  To start the listing process, click on the button below
 
Add a business
 

Other Pages about Adventhealth Wesley Chapel Heliport

Update a link
 
Copyright © AirNav, LLC. All rights reserved. Privacy Policy  Contact